sensor_id;sensor_type;location;lat;lon;timestamp;P1;durP1;ratioP1;P2;durP2;ratioP2
63320;SDS011;49449;48.800;9.534;2024-02-14T00:00:15;5.85;;;3.95;;
63320;SDS011;49449;48.800;9.534;2024-02-14T00:02:44;4.93;;;4.40;;
63320;SDS011;49449;48.800;9.534;2024-02-14T00:05:15;5.30;;;3.80;;
63320;SDS011;49449;48.800;9.534;2024-02-14T00:07:43;4.53;;;3.47;;
63320;SDS011;49449;48.800;9.534;2024-02-14T00:10:11;3.20;;;2.88;;
63320;SDS011;49449;48.800;9.534;2024-02-14T00:12:40;3.35;;;3.05;;
63320;SDS011;49449;48.800;9.534;2024-02-14T00:15:08;6.53;;;3.60;;
63320;SDS011;49449;48.800;9.534;2024-02-14T00:17:38;5.03;;;3.28;;
63320;SDS011;49449;48.800;9.534;2024-02-14T00:20:07;3.08;;;2.70;;
63320;SDS011;49449;48.800;9.534;2024-02-14T00:22:38;4.28;;;2.90;;
63320;SDS011;49449;48.800;9.534;2024-02-14T00:25:07;3.92;;;2.90;;
63320;SDS011;49449;48.800;9.534;2024-02-14T00:27:35;4.50;;;3.22;;
63320;SDS011;49449;48.800;9.534;2024-02-14T00:30:04;5.10;;;3.05;;
63320;SDS011;49449;48.800;9.534;2024-02-14T00:32:32;4.32;;;3.13;;
63320;SDS011;49449;48.800;9.534;2024-02-14T00:35:03;3.35;;;2.97;;
63320;SDS011;49449;48.800;9.534;2024-02-14T00:37:31;3.42;;;3.10;;
63320;SDS011;49449;48.800;9.534;2024-02-14T00:39:59;3.47;;;2.80;;
63320;SDS011;49449;48.800;9.534;2024-02-14T00:42:30;4.18;;;2.97;;
63320;SDS011;49449;48.800;9.534;2024-02-14T00:44:58;3.40;;;3.10;;
63320;SDS011;49449;48.800;9.534;2024-02-14T00:47:26;3.67;;;2.70;;
63320;SDS011;49449;48.800;9.534;2024-02-14T00:49:54;4.50;;;3.08;;
63320;SDS011;49449;48.800;9.534;2024-02-14T00:52:23;5.05;;;2.63;;
63320;SDS011;49449;48.800;9.534;2024-02-14T00:54:50;3.95;;;2.67;;
63320;SDS011;49449;48.800;9.534;2024-02-14T00:57:18;3.92;;;2.78;;
63320;SDS011;49449;48.800;9.534;2024-02-14T00:59:46;4.78;;;3.10;;
63320;SDS011;49449;48.800;9.534;2024-02-14T01:02:14;4.15;;;2.90;;
63320;SDS011;49449;48.800;9.534;2024-02-14T01:04:42;5.22;;;3.33;;
63320;SDS011;49449;48.800;9.534;2024-02-14T01:07:09;3.28;;;2.92;;
63320;SDS011;49449;48.800;9.534;2024-02-14T01:09:39;4.90;;;3.55;;
63320;SDS011;49449;48.800;9.534;2024-02-14T01:12:07;4.68;;;3.50;;
63320;SDS011;49449;48.800;9.534;2024-02-14T01:14:35;4.68;;;3.85;;
63320;SDS011;49449;48.800;9.534;2024-02-14T01:17:03;4.75;;;3.38;;
63320;SDS011;49449;48.800;9.534;2024-02-14T01:19:31;5.65;;;4.00;;
63320;SDS011;49449;48.800;9.534;2024-02-14T01:22:00;3.42;;;3.03;;
63320;SDS011;49449;48.800;9.534;2024-02-14T01:24:28;4.35;;;3.13;;
63320;SDS011;49449;48.800;9.534;2024-02-14T01:26:57;4.63;;;3.30;;
63320;SDS011;49449;48.800;9.534;2024-02-14T01:29:25;4.55;;;3.13;;
63320;SDS011;49449;48.800;9.534;2024-02-14T01:31:54;3.70;;;3.13;;
63320;SDS011;49449;48.800;9.534;2024-02-14T01:34:22;5.45;;;3.47;;
63320;SDS011;49449;48.800;9.534;2024-02-14T01:36:50;4.90;;;3.05;;
63320;SDS011;49449;48.800;9.534;2024-02-14T01:39:18;3.63;;;3.30;;
63320;SDS011;49449;48.800;9.534;2024-02-14T01:41:46;4.18;;;3.60;;
63320;SDS011;49449;48.800;9.534;2024-02-14T01:44:16;5.18;;;3.60;;
63320;SDS011;49449;48.800;9.534;2024-02-14T01:46:44;4.97;;;4.35;;
63320;SDS011;49449;48.800;9.534;2024-02-14T01:49:12;5.22;;;3.50;;
63320;SDS011;49449;48.800;9.534;2024-02-14T01:51:42;3.75;;;3.45;;
63320;SDS011;49449;48.800;9.534;2024-02-14T01:54:12;4.25;;;3.65;;
63320;SDS011;49449;48.800;9.534;2024-02-14T01:56:41;3.53;;;3.13;;
63320;SDS011;49449;48.800;9.534;2024-02-14T01:59:10;3.90;;;3.33;;
63320;SDS011;49449;48.800;9.534;2024-02-14T02:01:43;4.32;;;3.53;;
63320;SDS011;49449;48.800;9.534;2024-02-14T02:04:13;4.85;;;3.45;;
63320;SDS011;49449;48.800;9.534;2024-02-14T02:06:41;4.90;;;3.50;;
63320;SDS011;49449;48.800;9.534;2024-02-14T02:09:09;4.43;;;3.30;;
63320;SDS011;49449;48.800;9.534;2024-02-14T02:11:45;5.07;;;3.53;;
63320;SDS011;49449;48.800;9.534;2024-02-14T02:14:15;4.57;;;3.28;;
63320;SDS011;49449;48.800;9.534;2024-02-14T02:16:45;4.75;;;3.63;;
63320;SDS011;49449;48.800;9.534;2024-02-14T02:19:13;4.88;;;3.10;;
63320;SDS011;49449;48.800;9.534;2024-02-14T02:21:42;3.80;;;3.40;;
63320;SDS011;49449;48.800;9.534;2024-02-14T02:24:11;4.20;;;3.78;;
63320;SDS011;49449;48.800;9.534;2024-02-14T02:26:39;3.83;;;3.17;;
63320;SDS011;49449;48.800;9.534;2024-02-14T02:29:07;4.90;;;2.97;;
63320;SDS011;49449;48.800;9.534;2024-02-14T02:31:35;3.75;;;3.35;;
63320;SDS011;49449;48.800;9.534;2024-02-14T02:34:04;5.03;;;4.47;;
63320;SDS011;49449;48.800;9.534;2024-02-14T02:36:32;5.05;;;3.58;;
63320;SDS011;49449;48.800;9.534;2024-02-14T02:39:01;5.22;;;3.85;;
63320;SDS011;49449;48.800;9.534;2024-02-14T02:41:30;6.20;;;3.70;;
63320;SDS011;49449;48.800;9.534;2024-02-14T02:43:59;4.07;;;3.30;;
63320;SDS011;49449;48.800;9.534;2024-02-14T02:46:28;4.88;;;3.25;;
63320;SDS011;49449;48.800;9.534;2024-02-14T02:48:56;4.43;;;3.25;;
63320;SDS011;49449;48.800;9.534;2024-02-14T02:51:25;3.85;;;3.13;;
63320;SDS011;49449;48.800;9.534;2024-02-14T02:53:54;3.85;;;3.33;;
63320;SDS011;49449;48.800;9.534;2024-02-14T02:56:22;3.45;;;3.03;;
63320;SDS011;49449;48.800;9.534;2024-02-14T03:01:22;3.50;;;3.20;;
63320;SDS011;49449;48.800;9.534;2024-02-14T03:03:51;3.30;;;3.00;;
63320;SDS011;49449;48.800;9.534;2024-02-14T03:06:19;4.57;;;2.78;;
63320;SDS011;49449;48.800;9.534;2024-02-14T03:08:47;5.95;;;3.88;;
63320;SDS011;49449;48.800;9.534;2024-02-14T03:11:18;5.65;;;3.60;;
63320;SDS011;49449;48.800;9.534;2024-02-14T03:13:46;4.00;;;3.17;;
63320;SDS011;49449;48.800;9.534;2024-02-14T03:16:18;3.70;;;3.40;;
63320;SDS011;49449;48.800;9.534;2024-02-14T03:18:47;3.38;;;3.08;;
63320;SDS011;49449;48.800;9.534;2024-02-14T03:21:14;3.58;;;3.28;;
63320;SDS011;49449;48.800;9.534;2024-02-14T03:23:42;4.75;;;2.90;;
63320;SDS011;49449;48.800;9.534;2024-02-14T03:26:12;3.63;;;3.05;;
63320;SDS011;49449;48.800;9.534;2024-02-14T03:28:41;2.95;;;2.65;;
63320;SDS011;49449;48.800;9.534;2024-02-14T03:31:10;4.78;;;3.25;;
63320;SDS011;49449;48.800;9.534;2024-02-14T03:33:43;5.07;;;3.33;;
63320;SDS011;49449;48.800;9.534;2024-02-14T03:36:14;4.18;;;3.63;;
63320;SDS011;49449;48.800;9.534;2024-02-14T03:38:41;3.30;;;3.00;;
63320;SDS011;49449;48.800;9.534;2024-02-14T03:41:09;3.50;;;3.08;;
63320;SDS011;49449;48.800;9.534;2024-02-14T03:43:37;3.08;;;2.55;;
63320;SDS011;49449;48.800;9.534;2024-02-14T03:46:05;4.53;;;3.28;;
63320;SDS011;49449;48.800;9.534;2024-02-14T03:48:33;5.10;;;3.17;;
63320;SDS011;49449;48.800;9.534;2024-02-14T03:51:02;3.75;;;3.30;;
63320;SDS011;49449;48.800;9.534;2024-02-14T03:53:30;5.60;;;3.13;;
63320;SDS011;49449;48.800;9.534;2024-02-14T03:55:59;4.93;;;3.03;;
63320;SDS011;49449;48.800;9.534;2024-02-14T03:58:27;3.63;;;3.30;;
63320;SDS011;49449;48.800;9.534;2024-02-14T04:00:55;7.05;;;3.90;;
63320;SDS011;49449;48.800;9.534;2024-02-14T04:03:23;5.13;;;3.97;;
63320;SDS011;49449;48.800;9.534;2024-02-14T04:05:51;3.80;;;2.90;;
63320;SDS011;49449;48.800;9.534;2024-02-14T04:08:20;3.65;;;2.78;;
63320;SDS011;49449;48.800;9.534;2024-02-14T04:10:48;3.90;;;3.15;;
63320;SDS011;49449;48.800;9.534;2024-02-14T04:13:16;4.03;;;3.13;;
63320;SDS011;49449;48.800;9.534;2024-02-14T04:15:44;3.25;;;2.95;;
63320;SDS011;49449;48.800;9.534;2024-02-14T04:18:12;5.55;;;4.10;;
63320;SDS011;49449;48.800;9.534;2024-02-14T04:20:40;5.40;;;3.50;;
63320;SDS011;49449;48.800;9.534;2024-02-14T04:23:10;4.03;;;3.53;;
63320;SDS011;49449;48.800;9.534;2024-02-14T04:25:39;4.35;;;3.30;;
63320;SDS011;49449;48.800;9.534;2024-02-14T04:28:07;4.43;;;3.80;;
63320;SDS011;49449;48.800;9.534;2024-02-14T04:30:38;4.35;;;3.33;;
63320;SDS011;49449;48.800;9.534;2024-02-14T04:33:08;4.30;;;3.40;;
63320;SDS011;49449;48.800;9.534;2024-02-14T04:35:37;5.75;;;3.90;;
63320;SDS011;49449;48.800;9.534;2024-02-14T04:38:05;4.72;;;3.70;;
63320;SDS011;49449;48.800;9.534;2024-02-14T04:40:35;6.03;;;4.55;;
63320;SDS011;49449;48.800;9.534;2024-02-14T04:43:05;5.68;;;3.97;;
63320;SDS011;49449;48.800;9.534;2024-02-14T04:45:34;6.97;;;4.15;;
63320;SDS011;49449;48.800;9.534;2024-02-14T04:48:02;5.38;;;3.85;;
63320;SDS011;49449;48.800;9.534;2024-02-14T04:50:30;5.53;;;3.13;;
63320;SDS011;49449;48.800;9.534;2024-02-14T04:52:58;4.70;;;3.03;;
63320;SDS011;49449;48.800;9.534;2024-02-14T04:55:26;5.05;;;3.38;;
63320;SDS011;49449;48.800;9.534;2024-02-14T04:57:58;4.93;;;3.60;;
63320;SDS011;49449;48.800;9.534;2024-02-14T05:00:28;3.67;;;3.15;;
63320;SDS011;49449;48.800;9.534;2024-02-14T05:02:58;5.25;;;3.40;;
63320;SDS011;49449;48.800;9.534;2024-02-14T05:05:27;6.03;;;3.25;;
63320;SDS011;49449;48.800;9.534;2024-02-14T05:07:56;3.33;;;2.83;;
63320;SDS011;49449;48.800;9.534;2024-02-14T05:10:24;3.65;;;3.05;;
63320;SDS011;49449;48.800;9.534;2024-02-14T05:12:52;6.30;;;4.10;;
63320;SDS011;49449;48.800;9.534;2024-02-14T05:15:20;3.90;;;3.50;;
63320;SDS011;49449;48.800;9.534;2024-02-14T05:17:49;5.72;;;3.75;;
63320;SDS011;49449;48.800;9.534;2024-02-14T05:20:18;4.18;;;3.38;;
63320;SDS011;49449;48.800;9.534;2024-02-14T05:22:46;6.53;;;3.60;;
63320;SDS011;49449;48.800;9.534;2024-02-14T05:25:13;7.63;;;4.97;;
63320;SDS011;49449;48.800;9.534;2024-02-14T05:27:41;14.52;;;8.32;;
63320;SDS011;49449;48.800;9.534;2024-02-14T05:30:09;15.90;;;7.95;;
63320;SDS011;49449;48.800;9.534;2024-02-14T05:32:38;9.50;;;6.72;;
63320;SDS011;49449;48.800;9.534;2024-02-14T05:35:07;8.52;;;5.88;;
63320;SDS011;49449;48.800;9.534;2024-02-14T05:37:36;8.50;;;5.78;;
63320;SDS011;49449;48.800;9.534;2024-02-14T05:40:04;10.85;;;5.90;;
63320;SDS011;49449;48.800;9.534;2024-02-14T05:42:33;7.63;;;5.05;;
63320;SDS011;49449;48.800;9.534;2024-02-14T05:45:03;7.78;;;5.85;;
63320;SDS011;49449;48.800;9.534;2024-02-14T05:47:32;7.70;;;4.95;;
63320;SDS011;49449;48.800;9.534;2024-02-14T05:50:00;5.72;;;4.82;;
63320;SDS011;49449;48.800;9.534;2024-02-14T05:52:29;4.75;;;4.15;;
63320;SDS011;49449;48.800;9.534;2024-02-14T05:54:59;4.53;;;3.65;;
63320;SDS011;49449;48.800;9.534;2024-02-14T05:57:27;4.50;;;3.15;;
63320;SDS011;49449;48.800;9.534;2024-02-14T05:59:55;4.60;;;3.50;;
63320;SDS011;49449;48.800;9.534;2024-02-14T06:02:23;5.22;;;4.45;;
63320;SDS011;49449;48.800;9.534;2024-02-14T06:04:51;5.00;;;3.90;;
63320;SDS011;49449;48.800;9.534;2024-02-14T06:07:18;5.28;;;3.67;;
63320;SDS011;49449;48.800;9.534;2024-02-14T06:09:47;5.25;;;4.43;;
63320;SDS011;49449;48.800;9.534;2024-02-14T06:12:15;4.82;;;3.40;;
63320;SDS011;49449;48.800;9.534;2024-02-14T06:14:43;4.20;;;3.65;;
63320;SDS011;49449;48.800;9.534;2024-02-14T06:17:12;4.45;;;3.40;;
63320;SDS011;49449;48.800;9.534;2024-02-14T06:19:39;4.95;;;3.50;;
63320;SDS011;49449;48.800;9.534;2024-02-14T06:22:07;4.40;;;3.28;;
63320;SDS011;49449;48.800;9.534;2024-02-14T06:24:35;4.53;;;3.28;;
63320;SDS011;49449;48.800;9.534;2024-02-14T06:27:07;4.10;;;3.70;;
63320;SDS011;49449;48.800;9.534;2024-02-14T06:29:35;6.05;;;4.00;;
63320;SDS011;49449;48.800;9.534;2024-02-14T06:32:03;5.28;;;4.25;;
63320;SDS011;49449;48.800;9.534;2024-02-14T06:34:31;4.68;;;3.38;;
63320;SDS011;49449;48.800;9.534;2024-02-14T06:36:59;4.70;;;3.38;;
63320;SDS011;49449;48.800;9.534;2024-02-14T06:39:27;4.07;;;3.15;;
63320;SDS011;49449;48.800;9.534;2024-02-14T06:41:55;4.80;;;3.70;;
63320;SDS011;49449;48.800;9.534;2024-02-14T06:44:24;5.53;;;4.18;;
63320;SDS011;49449;48.800;9.534;2024-02-14T06:46:52;6.78;;;4.30;;
63320;SDS011;49449;48.800;9.534;2024-02-14T06:49:20;5.65;;;4.03;;
63320;SDS011;49449;48.800;9.534;2024-02-14T06:51:48;5.40;;;3.88;;
63320;SDS011;49449;48.800;9.534;2024-02-14T06:54:16;5.47;;;4.15;;
63320;SDS011;49449;48.800;9.534;2024-02-14T06:56:45;4.90;;;3.95;;
63320;SDS011;49449;48.800;9.534;2024-02-14T06:59:14;5.80;;;4.57;;
63320;SDS011;49449;48.800;9.534;2024-02-14T07:01:45;5.57;;;3.47;;
63320;SDS011;49449;48.800;9.534;2024-02-14T07:04:13;5.13;;;3.33;;
63320;SDS011;49449;48.800;9.534;2024-02-14T07:06:43;4.45;;;3.53;;
63320;SDS011;49449;48.800;9.534;2024-02-14T07:09:11;4.07;;;3.58;;
63320;SDS011;49449;48.800;9.534;2024-02-14T07:11:39;5.25;;;3.50;;
63320;SDS011;49449;48.800;9.534;2024-02-14T07:14:07;3.97;;;3.33;;
63320;SDS011;49449;48.800;9.534;2024-02-14T07:16:34;4.93;;;3.42;;
63320;SDS011;49449;48.800;9.534;2024-02-14T07:19:03;4.63;;;3.60;;
63320;SDS011;49449;48.800;9.534;2024-02-14T07:21:31;4.35;;;3.97;;
63320;SDS011;49449;48.800;9.534;2024-02-14T07:23:59;5.90;;;4.03;;
63320;SDS011;49449;48.800;9.534;2024-02-14T07:26:27;6.47;;;3.70;;
63320;SDS011;49449;48.800;9.534;2024-02-14T07:28:55;5.18;;;4.35;;
63320;SDS011;49449;48.800;9.534;2024-02-14T07:31:24;5.63;;;3.55;;
63320;SDS011;49449;48.800;9.534;2024-02-14T07:33:56;6.20;;;3.90;;
63320;SDS011;49449;48.800;9.534;2024-02-14T07:36:26;7.28;;;4.05;;
63320;SDS011;49449;48.800;9.534;2024-02-14T07:38:54;5.40;;;4.90;;
63320;SDS011;49449;48.800;9.534;2024-02-14T07:41:22;8.15;;;4.35;;
63320;SDS011;49449;48.800;9.534;2024-02-14T07:43:49;7.22;;;4.45;;
63320;SDS011;49449;48.800;9.534;2024-02-14T07:46:17;6.78;;;4.07;;
63320;SDS011;49449;48.800;9.534;2024-02-14T07:48:45;5.43;;;4.50;;
63320;SDS011;49449;48.800;9.534;2024-02-14T07:51:15;6.22;;;4.57;;
63320;SDS011;49449;48.800;9.534;2024-02-14T07:53:44;5.68;;;4.75;;
63320;SDS011;49449;48.800;9.534;2024-02-14T07:56:12;5.88;;;4.05;;
63320;SDS011;49449;48.800;9.534;2024-02-14T07:58:44;5.57;;;4.38;;
63320;SDS011;49449;48.800;9.534;2024-02-14T08:01:12;7.82;;;5.95;;
63320;SDS011;49449;48.800;9.534;2024-02-14T08:03:40;5.95;;;4.60;;
63320;SDS011;49449;48.800;9.534;2024-02-14T08:06:08;7.00;;;4.85;;
63320;SDS011;49449;48.800;9.534;2024-02-14T08:08:36;5.47;;;4.30;;
63320;SDS011;49449;48.800;9.534;2024-02-14T08:11:05;6.53;;;4.38;;
63320;SDS011;49449;48.800;9.534;2024-02-14T08:13:33;5.70;;;4.55;;
63320;SDS011;49449;48.800;9.534;2024-02-14T08:16:01;5.72;;;4.38;;
63320;SDS011;49449;48.800;9.534;2024-02-14T08:18:31;5.88;;;4.40;;
63320;SDS011;49449;48.800;9.534;2024-02-14T08:20:59;6.88;;;4.47;;
63320;SDS011;49449;48.800;9.534;2024-02-14T08:23:26;7.30;;;4.55;;
63320;SDS011;49449;48.800;9.534;2024-02-14T08:25:54;4.95;;;4.07;;
63320;SDS011;49449;48.800;9.534;2024-02-14T08:28:24;4.72;;;4.18;;
63320;SDS011;49449;48.800;9.534;2024-02-14T08:30:52;6.80;;;4.88;;
63320;SDS011;49449;48.800;9.534;2024-02-14T08:33:21;7.22;;;5.78;;
63320;SDS011;49449;48.800;9.534;2024-02-14T08:35:51;7.47;;;5.43;;
63320;SDS011;49449;48.800;9.534;2024-02-14T08:38:20;6.65;;;4.78;;
63320;SDS011;49449;48.800;9.534;2024-02-14T08:40:47;6.07;;;4.85;;
63320;SDS011;49449;48.800;9.534;2024-02-14T08:43:17;9.13;;;5.10;;
63320;SDS011;49449;48.800;9.534;2024-02-14T08:45:46;8.95;;;5.75;;
63320;SDS011;49449;48.800;9.534;2024-02-14T08:48:14;7.35;;;5.05;;
63320;SDS011;49449;48.800;9.534;2024-02-14T08:50:42;6.50;;;4.60;;
63320;SDS011;49449;48.800;9.534;2024-02-14T08:53:10;4.78;;;4.28;;
63320;SDS011;49449;48.800;9.534;2024-02-14T08:55:39;8.57;;;5.15;;
63320;SDS011;49449;48.800;9.534;2024-02-14T08:58:07;6.82;;;4.63;;
63320;SDS011;49449;48.800;9.534;2024-02-14T09:00:37;6.03;;;4.60;;
63320;SDS011;49449;48.800;9.534;2024-02-14T09:03:11;5.07;;;3.83;;
63320;SDS011;49449;48.800;9.534;2024-02-14T09:05:42;6.30;;;4.82;;
63320;SDS011;49449;48.800;9.534;2024-02-14T09:08:11;5.28;;;3.83;;
63320;SDS011;49449;48.800;9.534;2024-02-14T09:10:39;5.97;;;3.58;;
63320;SDS011;49449;48.800;9.534;2024-02-14T09:13:07;4.50;;;3.47;;
63320;SDS011;49449;48.800;9.534;2024-02-14T09:15:35;4.35;;;3.60;;
63320;SDS011;49449;48.800;9.534;2024-02-14T09:18:03;4.60;;;3.35;;
63320;SDS011;49449;48.800;9.534;2024-02-14T09:20:33;5.50;;;3.38;;
63320;SDS011;49449;48.800;9.534;2024-02-14T09:23:01;4.82;;;3.88;;
63320;SDS011;49449;48.800;9.534;2024-02-14T09:25:31;5.25;;;4.75;;
63320;SDS011;49449;48.800;9.534;2024-02-14T09:27:59;4.28;;;3.20;;
63320;SDS011;49449;48.800;9.534;2024-02-14T09:30:27;5.75;;;3.50;;
63320;SDS011;49449;48.800;9.534;2024-02-14T09:32:57;6.97;;;3.97;;
63320;SDS011;49449;48.800;9.534;2024-02-14T09:35:25;5.05;;;3.88;;
63320;SDS011;49449;48.800;9.534;2024-02-14T09:37:54;4.78;;;3.45;;
63320;SDS011;49449;48.800;9.534;2024-02-14T09:40:22;3.92;;;3.28;;
63320;SDS011;49449;48.800;9.534;2024-02-14T09:42:53;5.13;;;4.35;;
63320;SDS011;49449;48.800;9.534;2024-02-14T09:45:22;5.60;;;4.10;;
63320;SDS011;49449;48.800;9.534;2024-02-14T09:47:52;6.22;;;3.83;;
63320;SDS011;49449;48.800;9.534;2024-02-14T09:50:21;4.35;;;3.50;;
63320;SDS011;49449;48.800;9.534;2024-02-14T09:52:51;3.17;;;2.78;;
63320;SDS011;49449;48.800;9.534;2024-02-14T09:55:20;3.17;;;2.60;;
63320;SDS011;49449;48.800;9.534;2024-02-14T09:57:50;4.50;;;3.17;;
63320;SDS011;49449;48.800;9.534;2024-02-14T10:00:20;3.80;;;2.55;;
63320;SDS011;49449;48.800;9.534;2024-02-14T10:05:19;2.88;;;2.38;;
63320;SDS011;49449;48.800;9.534;2024-02-14T10:07:46;3.40;;;3.05;;
63320;SDS011;49449;48.800;9.534;2024-02-14T10:10:14;3.90;;;2.83;;
63320;SDS011;49449;48.800;9.534;2024-02-14T10:12:43;4.85;;;2.80;;
63320;SDS011;49449;48.800;9.534;2024-02-14T10:15:12;2.97;;;2.53;;
63320;SDS011;49449;48.800;9.534;2024-02-14T10:17:40;4.13;;;2.40;;
63320;SDS011;49449;48.800;9.534;2024-02-14T10:20:08;2.70;;;2.45;;
63320;SDS011;49449;48.800;9.534;2024-02-14T10:22:37;3.70;;;2.75;;
63320;SDS011;49449;48.800;9.534;2024-02-14T10:25:06;2.65;;;2.40;;
63320;SDS011;49449;48.800;9.534;2024-02-14T10:27:36;2.92;;;2.30;;
63320;SDS011;49449;48.800;9.534;2024-02-14T10:30:07;3.10;;;2.35;;
63320;SDS011;49449;48.800;9.534;2024-02-14T10:32:36;3.88;;;2.58;;
63320;SDS011;49449;48.800;9.534;2024-02-14T10:35:04;2.33;;;2.13;;
63320;SDS011;49449;48.800;9.534;2024-02-14T10:37:35;2.10;;;1.90;;
63320;SDS011;49449;48.800;9.534;2024-02-14T10:40:06;2.78;;;1.70;;
63320;SDS011;49449;48.800;9.534;2024-02-14T10:42:35;2.80;;;1.73;;
63320;SDS011;49449;48.800;9.534;2024-02-14T10:45:03;3.00;;;1.55;;
63320;SDS011;49449;48.800;9.534;2024-02-14T10:47:34;1.73;;;1.60;;
63320;SDS011;49449;48.800;9.534;2024-02-14T10:50:03;1.60;;;1.50;;
63320;SDS011;49449;48.800;9.534;2024-02-14T10:52:40;1.80;;;1.58;;
63320;SDS011;49449;48.800;9.534;2024-02-14T10:55:09;2.80;;;1.75;;
63320;SDS011;49449;48.800;9.534;2024-02-14T10:57:38;2.72;;;1.63;;
63320;SDS011;49449;48.800;9.534;2024-02-14T11:00:08;1.70;;;1.60;;
63320;SDS011;49449;48.800;9.534;2024-02-14T11:02:41;1.48;;;1.30;;
63320;SDS011;49449;48.800;9.534;2024-02-14T11:05:11;2.53;;;1.60;;
63320;SDS011;49449;48.800;9.534;2024-02-14T11:07:44;2.05;;;1.70;;
63320;SDS011;49449;48.800;9.534;2024-02-14T11:10:13;3.43;;;1.80;;
63320;SDS011;49449;48.800;9.534;2024-02-14T11:12:41;2.38;;;1.70;;
63320;SDS011;49449;48.800;9.534;2024-02-14T11:15:11;2.13;;;1.63;;
63320;SDS011;49449;48.800;9.534;2024-02-14T11:17:46;1.98;;;1.70;;
63320;SDS011;49449;48.800;9.534;2024-02-14T11:20:16;1.83;;;1.52;;
63320;SDS011;49449;48.800;9.534;2024-02-14T11:22:52;3.45;;;1.80;;
63320;SDS011;49449;48.800;9.534;2024-02-14T11:25:22;2.53;;;1.85;;
63320;SDS011;49449;48.800;9.534;2024-02-14T11:27:56;2.00;;;1.60;;
63320;SDS011;49449;48.800;9.534;2024-02-14T11:30:30;2.35;;;1.58;;
63320;SDS011;49449;48.800;9.534;2024-02-14T11:33:13;2.75;;;1.67;;
63320;SDS011;49449;48.800;9.534;2024-02-14T11:35:45;2.03;;;1.83;;
63320;SDS011;49449;48.800;9.534;2024-02-14T11:38:13;2.65;;;1.85;;
63320;SDS011;49449;48.800;9.534;2024-02-14T11:40:41;2.78;;;2.22;;
63320;SDS011;49449;48.800;9.534;2024-02-14T11:43:14;4.00;;;2.13;;
63320;SDS011;49449;48.800;9.534;2024-02-14T11:45:43;2.33;;;1.65;;
63320;SDS011;49449;48.800;9.534;2024-02-14T11:48:13;4.13;;;1.80;;
63320;SDS011;49449;48.800;9.534;2024-02-14T11:50:44;2.55;;;1.90;;
63320;SDS011;49449;48.800;9.534;2024-02-14T11:53:12;1.92;;;1.55;;
63320;SDS011;49449;48.800;9.534;2024-02-14T11:55:43;3.08;;;2.15;;
63320;SDS011;49449;48.800;9.534;2024-02-14T11:58:13;2.03;;;1.75;;
63320;SDS011;49449;48.800;9.534;2024-02-14T12:00:42;2.28;;;2.08;;
63320;SDS011;49449;48.800;9.534;2024-02-14T12:03:12;2.83;;;1.50;;
63320;SDS011;49449;48.800;9.534;2024-02-14T12:05:45;1.58;;;1.48;;
63320;SDS011;49449;48.800;9.534;2024-02-14T12:08:14;1.63;;;1.35;;
63320;SDS011;49449;48.800;9.534;2024-02-14T12:10:43;2.08;;;1.33;;
63320;SDS011;49449;48.800;9.534;2024-02-14T12:13:14;1.35;;;1.15;;
63320;SDS011;49449;48.800;9.534;2024-02-14T12:15:44;2.53;;;1.55;;
63320;SDS011;49449;48.800;9.534;2024-02-14T12:18:15;1.77;;;1.40;;
63320;SDS011;49449;48.800;9.534;2024-02-14T12:23:13;2.53;;;1.90;;
63320;SDS011;49449;48.800;9.534;2024-02-14T12:25:43;1.35;;;1.20;;
63320;SDS011;49449;48.800;9.534;2024-02-14T12:28:13;3.22;;;1.27;;
63320;SDS011;49449;48.800;9.534;2024-02-14T12:30:44;1.75;;;1.08;;
63320;SDS011;49449;48.800;9.534;2024-02-14T12:33:17;2.10;;;1.38;;
63320;SDS011;49449;48.800;9.534;2024-02-14T12:35:45;2.35;;;1.25;;
63320;SDS011;49449;48.800;9.534;2024-02-14T12:38:16;2.08;;;1.50;;
63320;SDS011;49449;48.800;9.534;2024-02-14T12:40:46;1.10;;;1.05;;
63320;SDS011;49449;48.800;9.534;2024-02-14T12:43:14;1.40;;;1.30;;
63320;SDS011;49449;48.800;9.534;2024-02-14T12:45:43;1.30;;;1.20;;
63320;SDS011;49449;48.800;9.534;2024-02-14T12:48:11;3.03;;;1.30;;
63320;SDS011;49449;48.800;9.534;2024-02-14T12:50:41;2.20;;;2.00;;
63320;SDS011;49449;48.800;9.534;2024-02-14T12:53:14;2.08;;;1.20;;
63320;SDS011;49449;48.800;9.534;2024-02-14T12:55:42;1.70;;;1.15;;
63320;SDS011;49449;48.800;9.534;2024-02-14T12:58:10;1.30;;;0.90;;
63320;SDS011;49449;48.800;9.534;2024-02-14T13:00:38;1.13;;;1.00;;
63320;SDS011;49449;48.800;9.534;2024-02-14T13:03:05;1.30;;;1.20;;
63320;SDS011;49449;48.800;9.534;2024-02-14T13:05:34;1.38;;;0.98;;
63320;SDS011;49449;48.800;9.534;2024-02-14T13:08:03;1.95;;;1.85;;
63320;SDS011;49449;48.800;9.534;2024-02-14T13:10:32;0.88;;;0.88;;
63320;SDS011;49449;48.800;9.534;2024-02-14T13:13:00;0.98;;;0.93;;
63320;SDS011;49449;48.800;9.534;2024-02-14T13:15:27;0.70;;;0.70;;
63320;SDS011;49449;48.800;9.534;2024-02-14T13:17:56;1.13;;;0.90;;
63320;SDS011;49449;48.800;9.534;2024-02-14T13:20:25;1.00;;;0.90;;
63320;SDS011;49449;48.800;9.534;2024-02-14T13:22:54;0.98;;;0.80;;
63320;SDS011;49449;48.800;9.534;2024-02-14T13:25:23;1.58;;;1.30;;
63320;SDS011;49449;48.800;9.534;2024-02-14T13:27:52;0.80;;;0.80;;
63320;SDS011;49449;48.800;9.534;2024-02-14T13:30:21;0.93;;;0.93;;
63320;SDS011;49449;48.800;9.534;2024-02-14T13:32:50;1.10;;;1.00;;
63320;SDS011;49449;48.800;9.534;2024-02-14T13:35:18;1.15;;;0.90;;
63320;SDS011;49449;48.800;9.534;2024-02-14T13:37:45;0.95;;;0.95;;
63320;SDS011;49449;48.800;9.534;2024-02-14T13:40:13;1.13;;;1.08;;
63320;SDS011;49449;48.800;9.534;2024-02-14T13:42:43;0.95;;;0.95;;
63320;SDS011;49449;48.800;9.534;2024-02-14T13:45:10;0.80;;;0.80;;
63320;SDS011;49449;48.800;9.534;2024-02-14T13:47:39;2.00;;;1.13;;
63320;SDS011;49449;48.800;9.534;2024-02-14T13:50:09;2.15;;;1.05;;
63320;SDS011;49449;48.800;9.534;2024-02-14T13:52:40;0.80;;;0.80;;
63320;SDS011;49449;48.800;9.534;2024-02-14T13:55:08;2.15;;;1.10;;
63320;SDS011;49449;48.800;9.534;2024-02-14T13:57:36;1.25;;;0.95;;
63320;SDS011;49449;48.800;9.534;2024-02-14T14:00:07;0.98;;;0.95;;
63320;SDS011;49449;48.800;9.534;2024-02-14T14:02:36;0.90;;;0.90;;
63320;SDS011;49449;48.800;9.534;2024-02-14T14:05:08;1.75;;;1.20;;
63320;SDS011;49449;48.800;9.534;2024-02-14T14:07:40;1.13;;;1.02;;
63320;SDS011;49449;48.800;9.534;2024-02-14T14:10:14;0.85;;;0.80;;
63320;SDS011;49449;48.800;9.534;2024-02-14T14:12:43;1.08;;;1.08;;
63320;SDS011;49449;48.800;9.534;2024-02-14T14:15:12;1.42;;;1.30;;
63320;SDS011;49449;48.800;9.534;2024-02-14T14:17:41;1.63;;;0.75;;
63320;SDS011;49449;48.800;9.534;2024-02-14T14:20:10;0.80;;;0.80;;
63320;SDS011;49449;48.800;9.534;2024-02-14T14:22:38;1.00;;;0.98;;
63320;SDS011;49449;48.800;9.534;2024-02-14T14:25:06;1.45;;;1.00;;
63320;SDS011;49449;48.800;9.534;2024-02-14T14:27:34;1.13;;;1.00;;
63320;SDS011;49449;48.800;9.534;2024-02-14T14:30:03;0.93;;;0.70;;
63320;SDS011;49449;48.800;9.534;2024-02-14T14:32:32;1.08;;;0.98;;
63320;SDS011;49449;48.800;9.534;2024-02-14T14:35:00;3.10;;;1.50;;
63320;SDS011;49449;48.800;9.534;2024-02-14T14:37:28;2.47;;;1.25;;
63320;SDS011;49449;48.800;9.534;2024-02-14T14:39:56;0.90;;;0.90;;
63320;SDS011;49449;48.800;9.534;2024-02-14T14:42:27;1.52;;;1.02;;
63320;SDS011;49449;48.800;9.534;2024-02-14T14:44:55;0.70;;;0.70;;
63320;SDS011;49449;48.800;9.534;2024-02-14T14:47:24;0.80;;;0.80;;
63320;SDS011;49449;48.800;9.534;2024-02-14T14:49:53;1.30;;;1.10;;
63320;SDS011;49449;48.800;9.534;2024-02-14T14:52:21;1.83;;;0.90;;
63320;SDS011;49449;48.800;9.534;2024-02-14T14:54:49;0.85;;;0.85;;
63320;SDS011;49449;48.800;9.534;2024-02-14T14:57:16;1.02;;;1.02;;
63320;SDS011;49449;48.800;9.534;2024-02-14T14:59:44;0.80;;;0.80;;
63320;SDS011;49449;48.800;9.534;2024-02-14T15:02:12;1.60;;;0.85;;
63320;SDS011;49449;48.800;9.534;2024-02-14T15:04:40;2.45;;;0.90;;